createdAt,value
2022-08-16T00:00:04.558Z,20.92
2022-08-16T00:02:33.100Z,20.92
2022-08-16T00:05:00.462Z,20.87
2022-08-16T00:07:29.106Z,20.84
2022-08-16T00:09:56.820Z,20.78
2022-08-16T00:12:26.708Z,20.65
2022-08-16T00:14:56.406Z,20.59
2022-08-16T00:17:26.673Z,20.49
2022-08-16T00:19:55.299Z,20.38
2022-08-16T00:22:25.586Z,20.33
2022-08-16T00:24:55.506Z,20.28
2022-08-16T00:27:23.365Z,20.17
2022-08-16T00:30:00.885Z,20.06
2022-08-16T00:32:35.310Z,20.02
2022-08-16T00:35:01.979Z,19.96
2022-08-16T00:37:58.462Z,19.84
2022-08-16T00:40:34.386Z,19.66
2022-08-16T00:43:12.385Z,19.57
2022-08-16T00:46:34.059Z,19.50
2022-08-16T00:48:53.789Z,19.45
2022-08-16T00:51:22.935Z,19.41
2022-08-16T00:53:51.103Z,19.42
2022-08-16T00:56:57.968Z,19.44
2022-08-16T00:59:11.150Z,19.47
2022-08-16T01:01:43.714Z,19.42
2022-08-16T01:04:29.497Z,19.34
2022-08-16T01:07:02.345Z,19.26
2022-08-16T01:09:33.465Z,19.17
2022-08-16T01:12:03.569Z,19.11
2022-08-16T01:14:35.302Z,18.95
2022-08-16T01:17:03.756Z,18.90
2022-08-16T01:19:45.394Z,18.88
2022-08-16T01:22:47.862Z,18.87
2022-08-16T01:25:34.143Z,18.80
2022-08-16T01:28:03.860Z,18.74
2022-08-16T01:30:49.744Z,18.74
2022-08-16T01:33:19.442Z,18.70
2022-08-16T01:36:11.582Z,18.74
2022-08-16T01:38:51.238Z,18.73
2022-08-16T01:41:29.726Z,18.74
2022-08-16T01:44:00.927Z,18.65
2022-08-16T01:46:47.034Z,18.61
2022-08-16T01:49:18.999Z,18.58
2022-08-16T01:51:50.381Z,18.60
2022-08-16T01:54:17.119Z,18.55
2022-08-16T01:56:57.651Z,18.53
2022-08-16T01:59:27.970Z,18.58
2022-08-16T02:02:00.160Z,18.52
2022-08-16T02:04:29.886Z,18.53
2022-08-16T02:07:18.496Z,18.52
2022-08-16T02:09:59.006Z,18.50
2022-08-16T02:12:50.397Z,18.47
2022-08-16T02:15:24.996Z,18.45
2022-08-16T02:17:53.352Z,18.41
2022-08-16T02:20:26.374Z,18.28
2022-08-16T02:22:57.549Z,18.20
2022-08-16T02:25:24.960Z,18.18
2022-08-16T02:28:11.469Z,18.13
2022-08-16T02:30:43.509Z,18.11
2022-08-16T02:33:12.759Z,18.05
2022-08-16T02:35:49.696Z,18.10
2022-08-16T02:38:21.251Z,18.09
2022-08-16T02:40:48.398Z,18.06
2022-08-16T02:43:16.126Z,18.07
2022-08-16T02:45:44.019Z,18.02
2022-08-16T02:48:29.309Z,18.00
2022-08-16T02:51:06.708Z,18.08
2022-08-16T02:53:40.923Z,18.09
2022-08-16T02:56:12.054Z,17.99
2022-08-16T02:58:41.953Z,17.92
2022-08-16T03:01:23.993Z,17.91
2022-08-16T03:04:39.426Z,17.88
2022-08-16T03:06:43.153Z,17.87
2022-08-16T03:09:14.733Z,17.87
2022-08-16T03:11:43.203Z,17.86
2022-08-16T03:14:11.541Z,17.81
2022-08-16T03:16:58.665Z,17.80
2022-08-16T03:19:48.477Z,17.81
2022-08-16T03:22:19.390Z,17.79
2022-08-16T03:24:57.574Z,17.75
2022-08-16T03:27:30.950Z,17.71
2022-08-16T03:30:00.063Z,17.73
2022-08-16T03:32:29.658Z,17.71
2022-08-16T03:34:56.190Z,17.65
2022-08-16T03:37:24.365Z,17.60
2022-08-16T03:39:56.911Z,17.56
2022-08-16T03:42:29.590Z,17.49
2022-08-16T03:45:03.597Z,17.45
2022-08-16T03:47:34.208Z,17.36
2022-08-16T03:50:02.905Z,17.34
2022-08-16T03:52:31.633Z,17.39
2022-08-16T03:54:59.641Z,17.37
2022-08-16T03:57:31.427Z,17.40
2022-08-16T04:00:12.382Z,17.43
2022-08-16T04:03:06.998Z,17.32
2022-08-16T04:05:36.626Z,17.21
2022-08-16T04:08:22.969Z,17.09
2022-08-16T04:10:52.466Z,17.10
2022-08-16T04:13:20.167Z,17.13
2022-08-16T04:15:48.045Z,17.09
2022-08-16T04:18:19.731Z,17.09
2022-08-16T04:20:46.181Z,17.09
2022-08-16T04:23:13.439Z,17.10
2022-08-16T04:25:40.579Z,17.07
2022-08-16T04:28:29.166Z,17.09
2022-08-16T04:30:55.361Z,17.08
2022-08-16T04:33:27.311Z,17.01
2022-08-16T04:35:57.872Z,16.98
2022-08-16T04:38:25.564Z,16.99
2022-08-16T04:40:52.325Z,17.03
2022-08-16T04:43:20.961Z,17.04
2022-08-16T04:46:00.378Z,17.06
2022-08-16T04:48:32.467Z,17.07
2022-08-16T04:51:00.874Z,17.12
2022-08-16T04:53:28.819Z,17.17
2022-08-16T04:55:55.866Z,17.24
2022-08-16T04:58:38.351Z,17.25
2022-08-16T05:01:09.077Z,17.32
2022-08-16T05:03:35.887Z,17.37
2022-08-16T05:06:09.397Z,17.42
2022-08-16T05:08:36.397Z,17.48
2022-08-16T05:11:08.461Z,17.54
2022-08-16T05:13:40.311Z,17.61
2022-08-16T05:16:11.790Z,17.70
2022-08-16T05:18:38.643Z,17.78
2022-08-16T05:21:11.105Z,17.83
2022-08-16T05:23:39.611Z,17.87
2022-08-16T05:26:06.552Z,17.91
2022-08-16T05:28:47.157Z,17.96
2022-08-16T05:31:21.916Z,18.08
2022-08-16T05:33:53.427Z,18.23
2022-08-16T05:36:21.881Z,18.34
2022-08-16T05:38:49.167Z,18.41
2022-08-16T05:41:17.022Z,18.43
2022-08-16T05:43:46.962Z,18.47
2022-08-16T05:46:28.855Z,18.52
2022-08-16T05:49:08.667Z,18.60
2022-08-16T05:51:38.475Z,18.70
2022-08-16T05:54:07.698Z,18.81
2022-08-16T05:56:37.550Z,18.89
2022-08-16T05:59:06.375Z,18.95
2022-08-16T06:01:38.090Z,18.98
2022-08-16T06:04:13.672Z,19.02
2022-08-16T06:06:57.724Z,19.12
2022-08-16T06:09:37.144Z,19.20
2022-08-16T06:12:12.725Z,19.29
2022-08-16T06:14:57.211Z,19.40
2022-08-16T06:17:43.185Z,19.48
2022-08-16T06:20:14.459Z,19.59
2022-08-16T06:22:40.948Z,19.68
2022-08-16T06:25:13.005Z,19.81
2022-08-16T06:27:41.809Z,19.92
2022-08-16T06:30:23.856Z,20.03
2022-08-16T06:32:55.699Z,20.13
2022-08-16T06:35:47.320Z,20.23
2022-08-16T06:38:22.192Z,20.35
2022-08-16T06:41:00.454Z,20.44
2022-08-16T06:43:28.985Z,20.57
2022-08-16T06:46:00.621Z,20.61
2022-08-16T06:48:32.932Z,20.67
2022-08-16T06:51:04.715Z,20.79
2022-08-16T06:53:34.834Z,20.88
2022-08-16T06:56:05.796Z,20.99
2022-08-16T06:58:33.733Z,21.03
2022-08-16T07:01:04.226Z,21.11
2022-08-16T07:03:55.526Z,21.16
2022-08-16T07:06:26.693Z,21.21
2022-08-16T07:08:55.456Z,21.30
2022-08-16T07:11:46.149Z,21.38
2022-08-16T07:14:25.548Z,21.49
2022-08-16T07:17:00.310Z,21.60
2022-08-16T07:20:01.355Z,21.67
2022-08-16T07:22:39.093Z,21.80
2022-08-16T07:25:08.432Z,21.92
2022-08-16T07:27:37.038Z,22.04
2022-08-16T07:30:38.491Z,22.15
2022-08-16T07:32:55.467Z,22.19
2022-08-16T07:35:22.641Z,22.22
2022-08-16T07:37:49.703Z,22.29
2022-08-16T07:40:16.701Z,22.32
2022-08-16T07:42:43.281Z,22.43
2022-08-16T07:45:11.911Z,22.57
2022-08-16T07:47:38.856Z,22.63
2022-08-16T07:50:09.616Z,22.73
2022-08-16T07:52:56.002Z,22.89
2022-08-16T07:55:22.490Z,22.99
2022-08-16T07:58:00.809Z,23.08
2022-08-16T08:00:29.563Z,23.18
2022-08-16T08:02:57.497Z,23.32
2022-08-16T08:05:29.725Z,23.30
2022-08-16T08:08:03.123Z,23.36
2022-08-16T08:10:38.853Z,23.45
2022-08-16T08:13:05.483Z,23.57
2022-08-16T08:15:35.314Z,23.79
2022-08-16T08:18:29.942Z,23.94
2022-08-16T08:20:59.295Z,24.00
2022-08-16T08:23:27.506Z,24.10
2022-08-16T08:25:55.798Z,24.17
2022-08-16T08:28:22.818Z,24.26
2022-08-16T08:30:57.387Z,24.42
2022-08-16T08:33:27.710Z,24.53
2022-08-16T08:35:57.778Z,24.55
2022-08-16T08:38:43.737Z,24.66
2022-08-16T08:41:11.997Z,24.76
2022-08-16T08:43:41.604Z,24.88
2022-08-16T08:46:18.253Z,25.00
2022-08-16T08:48:59.100Z,25.00
2022-08-16T08:51:27.611Z,25.02
2022-08-16T08:53:58.779Z,25.05
2022-08-16T08:56:25.857Z,25.07
2022-08-16T08:58:59.960Z,25.20
2022-08-16T09:01:36.401Z,25.32
2022-08-16T09:04:05.305Z,25.37
2022-08-16T09:06:44.372Z,25.47
2022-08-16T09:09:16.922Z,25.54
2022-08-16T09:11:47.247Z,25.57
2022-08-16T09:14:23.868Z,25.66
2022-08-16T09:17:02.308Z,25.72
2022-08-16T09:19:34.013Z,25.68
2022-08-16T09:22:01.499Z,25.63
2022-08-16T09:24:47.118Z,25.75
2022-08-16T09:27:56.704Z,26.03
2022-08-16T09:30:33.245Z,26.21
2022-08-16T09:33:02.780Z,26.33
2022-08-16T09:36:01.257Z,26.43
2022-08-16T09:38:31.131Z,26.52
2022-08-16T09:41:01.129Z,26.66
2022-08-16T09:43:58.591Z,26.76
2022-08-16T09:46:45.750Z,26.66
2022-08-16T09:49:19.818Z,26.77
2022-08-16T09:51:49.635Z,26.98
2022-08-16T09:54:20.913Z,27.21
2022-08-16T09:56:53.221Z,27.32
2022-08-16T09:59:30.727Z,27.48
2022-08-16T10:01:57.813Z,27.55
2022-08-16T10:04:31.699Z,27.54
2022-08-16T10:07:15.238Z,27.36
2022-08-16T10:09:44.897Z,27.43
2022-08-16T10:12:31.123Z,27.38
2022-08-16T10:14:57.676Z,27.65
2022-08-16T10:17:27.852Z,27.81
2022-08-16T10:19:55.330Z,27.91
2022-08-16T10:22:23.267Z,28.01
2022-08-16T10:24:55.636Z,28.24
2022-08-16T10:27:45.762Z,28.40
2022-08-16T10:30:26.259Z,28.59
2022-08-16T10:32:56.273Z,28.72
2022-08-16T10:35:23.932Z,28.89
2022-08-16T10:38:02.529Z,29.11
2022-08-16T10:40:33.537Z,29.29
2022-08-16T10:43:00.549Z,29.29
2022-08-16T10:45:36.973Z,29.21
2022-08-16T10:48:06.382Z,29.11
2022-08-16T10:50:52.860Z,28.98
2022-08-16T10:53:19.322Z,29.11
2022-08-16T10:56:55.905Z,29.17
2022-08-16T11:07:51.675Z,29.54
2022-08-16T11:10:20.426Z,29.72
2022-08-16T11:12:47.967Z,29.65
2022-08-16T11:15:20.292Z,29.47
2022-08-16T11:18:21.546Z,29.51
2022-08-16T11:20:41.530Z,29.68
2022-08-16T11:23:09.437Z,29.86
2022-08-16T11:31:14.545Z,30.44
2022-08-16T11:33:57.861Z,30.78
2022-08-16T11:36:33.950Z,30.89
2022-08-16T11:39:00.904Z,31.20
2022-08-16T11:41:29.288Z,31.38
2022-08-16T11:43:57.392Z,31.36
2022-08-16T11:46:43.255Z,31.38
2022-08-16T11:49:13.885Z,31.54
2022-08-16T11:51:43.986Z,31.46
2022-08-16T11:54:21.537Z,31.44
2022-08-16T11:57:00.634Z,31.84
2022-08-16T11:59:30.592Z,32.15
2022-08-16T12:02:30.575Z,32.59
2022-08-16T12:04:46.045Z,32.43
2022-08-16T12:07:18.852Z,32.45
2022-08-16T12:09:47.689Z,32.20
2022-08-16T12:12:15.232Z,32.01
2022-08-16T12:14:45.064Z,31.84
2022-08-16T12:17:13.321Z,32.03
2022-08-16T12:19:41.313Z,32.09
2022-08-16T12:22:18.889Z,32.48
2022-08-16T12:24:47.929Z,32.99
2022-08-16T12:27:23.164Z,33.42
2022-08-16T12:29:51.450Z,33.05
2022-08-16T12:32:35.818Z,32.93
2022-08-16T12:35:07.403Z,32.78
2022-08-16T12:37:34.213Z,32.48
2022-08-16T12:40:01.756Z,32.61
2022-08-16T12:42:34.518Z,32.61
2022-08-16T12:45:09.297Z,32.29
2022-08-16T12:48:05.113Z,32.23
2022-08-16T12:50:41.165Z,31.78
2022-08-16T12:53:07.828Z,31.47
2022-08-16T12:55:41.955Z,31.48
2022-08-16T12:58:14.055Z,31.32
2022-08-16T13:00:59.824Z,31.21
2022-08-16T13:03:28.860Z,31.04
2022-08-16T13:05:59.253Z,31.18
2022-08-16T13:08:27.482Z,31.40
2022-08-16T13:10:58.853Z,31.89
2022-08-16T13:13:25.878Z,31.94
2022-08-16T13:16:03.451Z,31.97
2022-08-16T13:18:34.096Z,32.20
2022-08-16T13:21:03.615Z,32.35
2022-08-16T13:23:31.039Z,32.26
2022-08-16T13:25:57.934Z,32.21
2022-08-16T13:28:26.640Z,32.14
2022-08-16T13:30:56.251Z,32.14
2022-08-16T13:33:30.001Z,32.22
2022-08-16T13:35:59.502Z,32.41
2022-08-16T13:38:32.647Z,32.64
2022-08-16T13:41:09.592Z,33.00
2022-08-16T13:43:37.952Z,33.41
2022-08-16T13:46:06.657Z,33.17
2022-08-16T13:48:42.908Z,33.19
2022-08-16T13:51:17.032Z,33.02
2022-08-16T13:53:58.212Z,33.17
2022-08-16T13:56:36.036Z,33.14
2022-08-16T13:59:19.972Z,33.46
2022-08-16T14:01:54.511Z,33.64
2022-08-16T14:04:27.652Z,33.87
2022-08-16T14:06:56.749Z,33.60
2022-08-16T14:09:24.124Z,33.03
2022-08-16T14:11:53.301Z,32.43
2022-08-16T14:14:28.260Z,32.33
2022-08-16T14:17:01.120Z,32.51
2022-08-16T14:19:29.719Z,32.77
2022-08-16T14:22:14.674Z,32.69
2022-08-16T14:24:46.792Z,32.12
2022-08-16T14:27:15.599Z,31.55
2022-08-16T14:29:42.396Z,31.45
2022-08-16T14:32:09.343Z,31.22
2022-08-16T14:34:40.309Z,31.12
2022-08-16T14:37:07.470Z,30.86
2022-08-16T14:39:34.868Z,31.00
2022-08-16T14:42:15.987Z,31.07
2022-08-16T14:44:42.925Z,30.99
2022-08-16T14:47:10.001Z,30.84
2022-08-16T14:49:40.497Z,30.69
2022-08-16T14:52:20.478Z,30.78
2022-08-16T14:55:04.946Z,30.66
2022-08-16T14:57:31.803Z,30.55
2022-08-16T15:00:05.765Z,30.68
2022-08-16T15:02:34.459Z,30.79
2022-08-16T15:05:04.309Z,30.91
2022-08-16T15:07:35.245Z,30.85
2022-08-16T15:10:03.449Z,30.91
2022-08-16T15:12:33.840Z,30.69
2022-08-16T15:15:12.691Z,30.84
2022-08-16T15:17:53.904Z,30.81
2022-08-16T15:20:22.745Z,30.69
2022-08-16T15:22:52.715Z,30.77
2022-08-16T15:25:30.292Z,30.92
2022-08-16T15:28:00.193Z,31.17
2022-08-16T15:30:56.739Z,31.57
2022-08-16T15:33:19.849Z,32.10
2022-08-16T15:35:50.219Z,32.30
2022-08-16T15:38:57.830Z,32.41
2022-08-16T15:41:04.836Z,32.10
2022-08-16T15:43:38.935Z,31.97
2022-08-16T15:46:53.982Z,31.80
2022-08-16T15:49:15.606Z,31.84
2022-08-16T15:51:45.336Z,31.39
2022-08-16T15:54:29.008Z,31.10
2022-08-16T15:57:11.011Z,30.89
2022-08-16T15:59:48.644Z,30.81
2022-08-16T16:02:29.504Z,30.77
2022-08-16T16:04:58.180Z,30.55
2022-08-16T16:07:30.226Z,30.51
2022-08-16T16:09:58.787Z,30.46
2022-08-16T16:15:18.382Z,30.47
2022-08-16T16:17:50.681Z,30.53
2022-08-16T16:20:18.910Z,30.54
2022-08-16T16:22:46.299Z,30.56
2022-08-16T16:25:15.824Z,30.55
2022-08-16T16:27:43.845Z,30.56
2022-08-16T16:30:44.233Z,30.53
2022-08-16T16:32:59.410Z,30.89
2022-08-16T16:35:32.547Z,31.24
2022-08-16T16:38:00.123Z,31.24
2022-08-16T16:40:32.810Z,31.42
2022-08-16T16:43:00.899Z,31.88
2022-08-16T16:45:38.097Z,31.59
2022-08-16T16:48:12.050Z,31.23
2022-08-16T16:50:39.428Z,31.31
2022-08-16T16:53:17.363Z,31.24
2022-08-16T16:55:52.978Z,31.12
2022-08-16T16:58:43.506Z,30.89
2022-08-16T17:01:20.963Z,30.90
2022-08-16T17:04:04.478Z,30.83
2022-08-16T17:07:17.207Z,30.61
2022-08-16T17:09:46.844Z,30.31
2022-08-16T17:15:00.270Z,29.98
2022-08-16T17:17:59.331Z,29.83
2022-08-16T17:20:18.529Z,29.86
2022-08-16T17:22:45.095Z,29.79
2022-08-16T17:25:25.318Z,29.56
2022-08-16T17:27:52.076Z,29.45
2022-08-16T17:30:21.525Z,29.41
2022-08-16T17:33:04.576Z,29.33
2022-08-16T17:35:55.481Z,29.31
2022-08-16T17:38:38.546Z,29.18
2022-08-16T17:39:26.138Z,30.08
2022-08-16T17:41:11.607Z,29.06
2022-08-16T17:43:43.839Z,28.92
2022-08-16T17:46:50.715Z,28.79
2022-08-16T17:48:57.377Z,28.61
2022-08-16T17:51:26.036Z,28.51
2022-08-16T17:53:52.539Z,28.35
2022-08-16T17:56:21.653Z,28.18
2022-08-16T17:58:48.149Z,28.02
2022-08-16T18:01:14.803Z,27.88
2022-08-16T18:04:08.869Z,27.83
2022-08-16T18:07:06.967Z,27.76
2022-08-16T18:09:33.434Z,27.67
2022-08-16T18:12:44.946Z,27.51
2022-08-16T18:15:03.648Z,27.41
2022-08-16T18:17:53.494Z,27.37
2022-08-16T18:20:41.662Z,27.30
2022-08-16T18:23:18.413Z,27.20
2022-08-16T18:26:04.092Z,27.08
2022-08-16T18:28:32.720Z,26.99
2022-08-16T18:31:01.106Z,26.86
2022-08-16T18:33:30.514Z,26.79
2022-08-16T18:36:20.071Z,26.64
2022-08-16T18:38:48.831Z,26.48
2022-08-16T18:41:15.364Z,26.38
2022-08-16T18:44:23.717Z,26.31
2022-08-16T18:46:29.698Z,26.21
2022-08-16T18:48:56.167Z,26.16
2022-08-16T18:51:25.276Z,26.07
2022-08-16T18:53:52.231Z,26.01
2022-08-16T18:56:23.898Z,25.94
2022-08-16T18:59:10.326Z,25.84
2022-08-16T19:01:37.050Z,25.72
2022-08-16T19:04:03.911Z,25.64
2022-08-16T19:07:13.547Z,25.61
2022-08-16T19:09:40.494Z,25.54
2022-08-16T19:12:07.544Z,25.44
2022-08-16T19:14:34.101Z,25.38
2022-08-16T19:17:05.437Z,25.28
2022-08-16T19:19:31.961Z,25.23
2022-08-16T19:21:58.546Z,25.20
2022-08-16T19:24:29.250Z,25.12
2022-08-16T19:27:01.795Z,25.06
2022-08-16T19:29:29.175Z,24.98
2022-08-16T19:31:58.573Z,24.91
2022-08-16T19:34:25.414Z,24.86
2022-08-16T19:37:15.016Z,24.80
2022-08-16T19:39:41.769Z,24.72
2022-08-16T19:42:18.172Z,24.61
2022-08-16T19:44:46.508Z,24.57
2022-08-16T19:47:31.808Z,24.56
2022-08-16T19:49:58.873Z,24.52
2022-08-16T19:52:29.576Z,24.49
2022-08-16T19:55:02.345Z,24.44
2022-08-16T19:57:35.877Z,24.39
2022-08-16T20:00:11.178Z,24.37
2022-08-16T20:02:47.869Z,24.33
2022-08-16T20:05:17.623Z,24.27
2022-08-16T20:07:46.541Z,24.22
2022-08-16T20:10:14.539Z,24.19
2022-08-16T20:12:41.100Z,24.15
2022-08-16T20:15:12.628Z,24.09
2022-08-16T20:17:39.623Z,24.06
2022-08-16T20:20:06.614Z,24.02
2022-08-16T20:22:54.434Z,24.00
2022-08-16T20:25:28.459Z,23.96
2022-08-16T20:27:59.003Z,23.93
2022-08-16T20:30:28.587Z,23.85
2022-08-16T20:32:56.067Z,23.79
2022-08-16T20:35:25.860Z,23.75
2022-08-16T20:37:52.541Z,23.73
2022-08-16T20:40:34.109Z,23.73
2022-08-16T20:43:09.918Z,23.73
2022-08-16T20:45:43.896Z,23.70
2022-08-16T20:48:10.704Z,23.66
2022-08-16T20:50:37.885Z,23.62
2022-08-16T20:53:05.051Z,23.61
2022-08-16T20:56:06.302Z,23.57
2022-08-16T20:58:33.256Z,23.55
2022-08-16T21:01:00.221Z,23.55
2022-08-16T21:03:27.073Z,23.53
2022-08-16T21:05:57.866Z,23.49
2022-08-16T21:08:50.011Z,23.45
2022-08-16T21:11:11.612Z,23.43
2022-08-16T21:13:42.625Z,23.36
2022-08-16T21:16:29.786Z,23.35
2022-08-16T21:18:56.441Z,23.33
2022-08-16T21:21:23.250Z,23.31
2022-08-16T21:23:58.606Z,23.28
2022-08-16T21:26:27.567Z,23.22
2022-08-16T21:28:55.474Z,23.21
2022-08-16T21:31:22.890Z,23.19
2022-08-16T21:33:55.740Z,23.12
2022-08-16T21:36:42.006Z,23.04
2022-08-16T21:39:08.551Z,23.00
2022-08-16T21:41:38.424Z,22.94
2022-08-16T21:44:05.351Z,22.90
2022-08-16T21:47:01.974Z,22.86
2022-08-16T21:49:31.396Z,22.78
2022-08-16T21:51:57.924Z,22.69
2022-08-16T21:54:25.601Z,22.66
2022-08-16T22:00:33.931Z,22.58
2022-08-16T22:03:04.602Z,22.49
2022-08-16T22:05:32.939Z,22.46
2022-08-16T22:08:01.467Z,22.46
2022-08-16T22:11:06.189Z,22.43
2022-08-16T22:13:20.651Z,22.39
2022-08-16T22:15:53.679Z,22.36
2022-08-16T22:18:21.369Z,22.33
2022-08-16T22:20:49.076Z,22.33
2022-08-16T22:23:17.251Z,22.34
2022-08-16T22:25:54.911Z,22.30
2022-08-16T22:28:23.171Z,22.26
2022-08-16T22:30:50.507Z,22.21
2022-08-16T22:33:24.470Z,22.18
2022-08-16T22:35:52.854Z,22.17
2022-08-16T22:38:54.455Z,22.17
2022-08-16T22:41:15.320Z,22.14
2022-08-16T22:43:44.936Z,22.12
2022-08-16T22:46:11.592Z,22.11
2022-08-16T22:48:41.351Z,22.05
2022-08-16T22:51:09.493Z,22.03
2022-08-16T22:53:37.384Z,22.01
2022-08-16T22:56:04.562Z,21.99
2022-08-16T22:58:36.890Z,21.94
2022-08-16T23:01:06.007Z,21.91
2022-08-16T23:03:33.131Z,21.89
2022-08-16T23:06:00.825Z,21.87
2022-08-16T23:08:39.624Z,21.83
2022-08-16T23:11:14.304Z,21.80
2022-08-16T23:13:52.489Z,21.79
2022-08-16T23:16:24.944Z,21.79
2022-08-16T23:19:00.076Z,21.78
2022-08-16T23:21:26.676Z,21.77
2022-08-16T23:23:55.262Z,21.75
2022-08-16T23:26:36.376Z,21.68
2022-08-16T23:29:12.144Z,21.63
2022-08-16T23:31:49.249Z,21.63
2022-08-16T23:34:16.082Z,21.63
2022-08-16T23:36:42.639Z,21.55
2022-08-16T23:39:09.178Z,21.46
2022-08-16T23:41:35.750Z,21.41
2022-08-16T23:44:02.389Z,21.38
2022-08-16T23:46:49.733Z,21.41
2022-08-16T23:49:58.988Z,21.41
2022-08-16T23:52:08.148Z,21.39
2022-08-16T23:54:36.000Z,21.37
2022-08-16T23:57:04.255Z,21.37
2022-08-16T23:59:36.737Z,21.31
